Velence, Olaszország

2015 Március 28 06:42 PM (CET időzóna) (GMT +0100)
Venezia | | Change Station
CLOSE
Current Station
Personal Weather Stations
Location: Dese, Venezia
Elevation: 14 ft
Közeli meteorológiai állomások

Elev 14 ft 45.53 °N, 12.31 °E | Updated 1 minute ago

Clear
Derült
55.2 °F
Hőérzet 55.2 °F
N
1.0
Szél: változó Szél: from dél-délnyugati
Gusts 3.0 mph

Ma
High -- | Low -- °F
--% Csapadék valószínű
Tegnapi
High -- | Low -- °F
Precip. -- hvlyk.
5:59 AM 6:33 PM
Növekvő hold, 64% visible
Légnyomás 29.95 hvlyk.
Látótávolság -9999.0 mérföld
Felhők
Harmatpont 42 °F
Páratartalom 60%
Rainfall 0.00 hvlyk.
Hóréteg vastagsága Not available.
UV Not available.
Pollen Not available.
A levegő minősége Not available.
Flu Activity Not available.
METAR LIPZ 281720Z 16006KT 120V180 CAVOK 13/03 Q1014

More Conditions Fewer Conditions

Légnyomás 29.95 hvlyk.
Látótávolság -9999.0 mérföld
Felhők
Harmatpont 42 °F
Páratartalom 60%
Rainfall 0.00 hvlyk.
Hóréteg vastagsága Not available.
UV Not available.
Pollen Not available.
A levegő minősége Not available.
Flu Activity Not available.
METAR LIPZ 281720Z 16006KT 120V180 CAVOK 13/03 Q1014

More Conditions Fewer Conditions

10-Day Weather Forecast

Almanac

Csillagászat

Mar. 28, 2015 Kel Nyugszik
Tényleges idő
Civil alkony
Tengerészeti alkony
Csillagászati alkony
Hold
Látható fény időtartama
A nap hossza
Tomorrow will be .
, % of the Moon is Illuminated

Today's Extremes

Country Highs Country Lows

Community

WunderPhotos

Upload Photos

1,809,034 Fotók feltöltve.

WunderBlogs® & News

Nearby

A levegő minősége

  A levegő minősége AQ Index Szennyezőanyag
Not available.

Hóréteg vastagsága

Station Depth Elevation

Earthquake Activity

város Distance Mag. Time & Date
Minimum magnitude displayed is 2.5.

Coastal Water Temperatures

Hely Hőmérséklet

Stations

Közeli meteorológiai állomások

Station Location Hőm. Hőérzet Harmatpont Páratartalom Szél: Precip. Elev Frissítve Type